Time;durP1;ratioP1;P1;durP2;ratioP2;P2;SDS_P1;SDS_P2;PMS_P1;PMS_P2;Temp;Humidity;BMP_temperature;BMP_pressure;BME280_temperature;BME280_humidity;BME280_pressure;Samples;Min_cycle;Max_cycle;Signal;HPM_P1;HPM_P2
2022/11/06 00:00:32;;;;;;;8.70;4.13;;;;;;;;;;5159958;27;20103;-68
2022/11/06 00:02:59;;;;;;;8.88;3.60;;;;;;;;;;5169091;27;20077;-67
2022/11/06 00:08:10;;;;;;;7.40;4.03;;;;;;;;;;5148202;27;20062;-67
2022/11/06 00:10:37;;;;;;;7.43;4.30;;;;;;;;;;5159054;27;20086;-67
2022/11/06 00:13:04;;;;;;;11.13;4.25;;;;;;;;;;5173792;27;20050;-67
2022/11/06 00:15:30;;;;;;;8.27;3.47;;;;;;;;;;5165631;27;20112;-67
2022/11/06 00:17:57;;;;;;;7.20;4.03;;;;;;;;;;5166128;27;20047;-69
2022/11/06 00:20:24;;;;;;;10.30;3.95;;;;;;;;;;5138737;27;20084;-67
2022/11/06 00:22:50;;;;;;;8.02;4.30;;;;;;;;;;5151600;27;20039;-67
2022/11/06 00:25:17;;;;;;;9.57;4.32;;;;;;;;;;5157350;27;20053;-68
2022/11/06 00:27:43;;;;;;;12.30;3.85;;;;;;;;;;5146330;27;20058;-66
2022/11/06 00:30:12;;;;;;;7.53;4.25;;;;;;;;;;5163820;27;20047;-68
2022/11/06 00:32:39;;;;;;;12.60;5.18;;;;;;;;;;5150949;27;20439;-67
2022/11/06 00:35:06;;;;;;;10.00;4.10;;;;;;;;;;5150994;27;20074;-68
2022/11/06 00:37:33;;;;;;;11.75;4.93;;;;;;;;;;5152675;27;20042;-68
2022/11/06 00:39:59;;;;;;;12.80;4.53;;;;;;;;;;5158886;27;20428;-67
2022/11/06 00:42:26;;;;;;;12.60;4.68;;;;;;;;;;5160808;27;20468;-68
2022/11/06 00:44:52;;;;;;;13.02;4.40;;;;;;;;;;5150056;27;20051;-67
2022/11/06 00:47:18;;;;;;;11.55;4.75;;;;;;;;;;5164310;27;20050;-67
2022/11/06 00:49:45;;;;;;;8.52;4.35;;;;;;;;;;5162304;27;20050;-68
2022/11/06 00:52:11;;;;;;;11.32;4.18;;;;;;;;;;5165448;27;20043;-66
2022/11/06 00:54:38;;;;;;;7.85;4.18;;;;;;;;;;5164940;27;20047;-67
2022/11/06 00:57:04;;;;;;;6.80;4.20;;;;;;;;;;5162485;27;20078;-67
2022/11/06 00:59:30;;;;;;;12.23;4.32;;;;;;;;;;5161680;27;20068;-66
2022/11/06 01:01:57;;;;;;;7.40;4.32;;;;;;;;;;5155976;27;20533;-68
2022/11/06 01:04:24;;;;;;;9.77;4.20;;;;;;;;;;5156217;27;20055;-67
2022/11/06 01:06:52;;;;;;;10.43;4.45;;;;;;;;;;5161278;27;20047;-67
2022/11/06 01:09:19;;;;;;;10.35;4.95;;;;;;;;;;5165533;27;20637;-67
2022/11/06 01:11:47;;;;;;;7.28;4.03;;;;;;;;;;5159133;27;20063;-68
2022/11/06 01:14:37;;;;;;;8.48;3.97;;;;;;;;;;5142796;27;20055;-67
2022/11/06 01:17:03;;;;;;;9.07;4.55;;;;;;;;;;5164941;27;20047;-66
2022/11/06 01:19:29;;;;;;;9.00;4.55;;;;;;;;;;5162715;27;20051;-67
2022/11/06 01:21:56;;;;;;;11.57;4.60;;;;;;;;;;5165650;27;20051;-68
2022/11/06 01:24:24;;;;;;;8.88;4.35;;;;;;;;;;5163962;27;20077;-67
2022/11/06 01:26:50;;;;;;;10.32;5.05;;;;;;;;;;5164394;27;20055;-68
2022/11/06 01:29:36;;;;;;;8.82;3.88;;;;;;;;;;5151559;27;20086;-67
2022/11/06 01:32:03;;;;;;;7.75;4.05;;;;;;;;;;5161781;27;20051;-66
2022/11/06 01:34:29;;;;;;;7.07;4.05;;;;;;;;;;5162990;27;20055;-67
2022/11/06 01:36:55;;;;;;;8.25;4.10;;;;;;;;;;5161335;27;20608;-66
2022/11/06 01:39:22;;;;;;;8.00;4.30;;;;;;;;;;5163195;27;20058;-68
2022/11/06 01:41:49;;;;;;;8.30;4.05;;;;;;;;;;5161396;27;20050;-67
2022/11/06 01:44:34;;;;;;;19.13;5.57;;;;;;;;;;5147450;27;20054;-67
2022/11/06 01:47:01;;;;;;;8.23;4.20;;;;;;;;;;5154316;27;20052;-68
2022/11/06 01:49:31;;;;;;;8.93;4.18;;;;;;;;;;5146203;27;20040;-67
2022/11/06 01:52:00;;;;;;;9.93;4.50;;;;;;;;;;5165382;27;20051;-68
2022/11/06 01:54:27;;;;;;;8.73;3.92;;;;;;;;;;5162723;27;20058;-67
2022/11/06 01:56:55;;;;;;;11.80;4.32;;;;;;;;;;5161000;27;20074;-68
2022/11/06 01:59:23;;;;;;;12.02;4.63;;;;;;;;;;5147777;27;20080;-68
2022/11/06 02:01:50;;;;;;;9.57;4.25;;;;;;;;;;5166991;27;20067;-67
2022/11/06 02:04:28;;;;;;;5.97;3.85;;;;;;;;;;5157155;27;20120;-67
2022/11/06 02:06:55;;;;;;;10.07;4.50;;;;;;;;;;5157868;27;20062;-68
2022/11/06 02:09:23;;;;;;;9.60;4.15;;;;;;;;;;5154426;27;20054;-67
2022/11/06 02:11:51;;;;;;;9.85;4.20;;;;;;;;;;5150469;27;20085;-66
2022/11/06 02:14:27;;;;;;;6.25;3.83;;;;;;;;;;5158019;27;20054;-65
2022/11/06 02:16:59;;;;;;;6.30;3.45;;;;;;;;;;5161548;27;20513;-66
2022/11/06 02:19:41;;;;;;;5.85;3.65;;;;;;;;;;5151540;27;20062;-67
2022/11/06 02:22:18;;;;;;;10.10;3.65;;;;;;;;;;5148605;27;20054;-66
2022/11/06 02:24:50;;;;;;;7.00;3.47;;;;;;;;;;5146647;27;20054;-67
2022/11/06 02:27:22;;;;;;;7.00;4.40;;;;;;;;;;5145156;27;20055;-67
2022/11/06 02:29:51;;;;;;;10.32;3.90;;;;;;;;;;5145510;27;20555;-66
2022/11/06 02:32:23;;;;;;;6.75;3.83;;;;;;;;;;5144180;27;20094;-67
2022/11/06 02:34:52;;;;;;;9.23;3.67;;;;;;;;;;5158205;27;20512;-68
2022/11/06 02:37:23;;;;;;;4.57;3.20;;;;;;;;;;5160834;27;20166;-66
2022/11/06 02:39:50;;;;;;;7.65;3.78;;;;;;;;;;5159262;27;20134;-66
2022/11/06 02:42:18;;;;;;;9.90;3.72;;;;;;;;;;5151520;27;20059;-66
2022/11/06 02:44:46;;;;;;;9.85;3.85;;;;;;;;;;5145111;27;20145;-66
2022/11/06 02:47:13;;;;;;;8.50;3.30;;;;;;;;;;5147527;27;20055;-67
2022/11/06 02:49:42;;;;;;;5.30;3.50;;;;;;;;;;5147463;27;20047;-68
2022/11/06 02:52:20;;;;;;;10.23;4.30;;;;;;;;;;5150337;27;20062;-67
2022/11/06 02:54:50;;;;;;;8.60;3.50;;;;;;;;;;5166097;27;20043;-67
2022/11/06 02:57:19;;;;;;;10.95;3.58;;;;;;;;;;5148273;27;20047;-67
2022/11/06 03:00:03;;;;;;;7.43;3.78;;;;;;;;;;5162441;27;20148;-66
2022/11/06 03:02:34;;;;;;;9.23;3.42;;;;;;;;;;5158520;27;20044;-68
2022/11/06 03:05:07;;;;;;;6.15;3.22;;;;;;;;;;5147418;27;20403;-67
2022/11/06 03:07:38;;;;;;;8.30;3.35;;;;;;;;;;5151948;27;20055;-66
2022/11/06 03:10:05;;;;;;;7.28;3.30;;;;;;;;;;5161469;27;20050;-66
2022/11/06 03:12:35;;;;;;;10.23;4.28;;;;;;;;;;5146340;27;20042;-67
2022/11/06 03:15:15;;;;;;;6.82;3.17;;;;;;;;;;5166951;27;20086;-67
2022/11/06 03:17:46;;;;;;;12.45;3.47;;;;;;;;;;5152000;27;20058;-67
2022/11/06 03:20:12;;;;;;;7.72;3.17;;;;;;;;;;5148873;27;20058;-67
2022/11/06 03:22:51;;;;;;;4.80;2.80;;;;;;;;;;5160165;27;20284;-66
2022/11/06 03:25:20;;;;;;;5.75;3.53;;;;;;;;;;5166726;27;20557;-65
2022/11/06 03:27:46;;;;;;;9.52;3.95;;;;;;;;;;5165722;27;20051;-66
2022/11/06 03:30:12;;;;;;;9.57;3.78;;;;;;;;;;5146729;27;20084;-65
2022/11/06 03:32:42;;;;;;;8.07;2.97;;;;;;;;;;5149918;27;20137;-65
2022/11/06 03:35:14;;;;;;;10.00;2.70;;;;;;;;;;5167326;27;20054;-67
2022/11/06 03:37:47;;;;;;;7.13;2.65;;;;;;;;;;5167063;27;20078;-67
2022/11/06 03:40:15;;;;;;;9.02;2.90;;;;;;;;;;5169087;27;20493;-64
2022/11/06 03:42:43;;;;;;;7.97;3.03;;;;;;;;;;5158543;27;20593;-63
2022/11/06 03:45:14;;;;;;;8.27;3.50;;;;;;;;;;5166089;27;20073;-67
2022/11/06 03:47:47;;;;;;;7.43;2.67;;;;;;;;;;5236793;22;20055;-71
2022/11/06 03:50:13;;;;;;;7.45;3.13;;;;;;;;;;5103355;27;20049;-71
2022/11/06 03:52:42;;;;;;;9.10;3.45;;;;;;;;;;5104783;28;20082;-71
2022/11/06 03:55:17;;;;;;;8.35;2.75;;;;;;;;;;5104384;28;20070;-70
2022/11/06 03:57:52;;;;;;;4.90;3.38;;;;;;;;;;5102574;27;20059;-70
2022/11/06 04:00:19;;;;;;;5.55;2.65;;;;;;;;;;5103083;28;20060;-71
2022/11/06 04:02:48;;;;;;;10.13;3.40;;;;;;;;;;5085487;28;20052;-70
2022/11/06 04:05:19;;;;;;;9.13;3.55;;;;;;;;;;5104217;28;20432;-70
2022/11/06 04:13:56;;;;;;;6.95;3.45;;;;;;;;;;5101899;28;20051;-70
2022/11/06 04:16:10;;;;;;;6.22;3.13;;;;;;;;;;5093779;28;20052;-70
2022/11/06 04:18:36;;;;;;;10.32;3.88;;;;;;;;;;5099851;28;20055;-70
2022/11/06 04:21:26;;;;;;;12.48;3.28;;;;;;;;;;5102845;28;20055;-70
2022/11/06 04:26:51;;;;;;;7.03;2.42;;;;;;;;;;5102981;28;20170;-70
2022/11/06 04:29:39;;;;;;;7.72;2.28;;;;;;;;;;5099278;28;20536;-70
2022/11/06 04:32:15;;;;;;;9.13;3.00;;;;;;;;;;5098547;28;20056;-70
2022/11/06 04:34:41;;;;;;;;;;;;;;;;;;5102773;27;21074;-69
2022/11/06 04:37:10;;;;;;;7.43;2.63;;;;;;;;;;5102472;27;45645;-70
2022/11/06 04:39:49;;;;;;;8.77;2.70;;;;;;;;;;5102991;28;20453;-70
2022/11/06 04:42:21;;;;;;;7.93;2.55;;;;;;;;;;5102215;28;20121;-70
2022/11/06 04:44:49;;;;;;;6.78;3.47;;;;;;;;;;5093564;28;20052;-70
2022/11/06 04:47:17;;;;;;;14.52;3.40;;;;;;;;;;5103389;28;20049;-70
2022/11/06 04:49:44;;;;;;;10.27;2.85;;;;;;;;;;5101756;27;20079;-70
2022/11/06 04:52:12;;;;;;;10.73;2.95;;;;;;;;;;5103984;28;20049;-70
2022/11/06 04:54:39;;;;;;;6.68;2.83;;;;;;;;;;5102713;28;20048;-70
2022/11/06 04:57:06;;;;;;;9.30;2.72;;;;;;;;;;5104458;28;20080;-70
2022/11/06 04:59:34;;;;;;;7.72;2.60;;;;;;;;;;5102366;28;20051;-70
2022/11/06 05:02:00;;;;;;;8.93;2.65;;;;;;;;;;5101175;28;20049;-70
2022/11/06 05:04:26;;;;;;;6.35;2.22;;;;;;;;;;5103223;28;20052;-70
2022/11/06 05:06:53;;;;;;;4.93;2.40;;;;;;;;;;5103500;28;20495;-70
2022/11/06 05:09:19;;;;;;;6.97;2.95;;;;;;;;;;5101599;27;20048;-70
2022/11/06 05:11:45;;;;;;;5.50;2.65;;;;;;;;;;5084393;28;20062;-70
2022/11/06 05:14:12;;;;;;;6.57;2.50;;;;;;;;;;5086046;28;20435;-70
2022/11/06 05:16:38;;;;;;;4.90;2.28;;;;;;;;;;5069050;28;20052;-70
2022/11/06 05:19:04;;;;;;;4.78;2.38;;;;;;;;;;5085747;28;20047;-70
2022/11/06 05:24:16;;;;;;;7.43;2.73;;;;;;;;;;5103250;28;20062;-70
2022/11/06 05:26:42;;;;;;;10.90;2.80;;;;;;;;;;5083123;28;20555;-70
2022/11/06 05:29:09;;;;;;;5.82;2.60;;;;;;;;;;5105129;27;20051;-70
2022/11/06 05:31:36;;;;;;;7.38;2.40;;;;;;;;;;5089715;28;20052;-70
2022/11/06 05:34:02;;;;;;;8.63;3.10;;;;;;;;;;5102942;28;20513;-70
2022/11/06 05:36:29;;;;;;;6.00;2.72;;;;;;;;;;5101860;28;20056;-70
2022/11/06 05:38:55;;;;;;;4.88;1.95;;;;;;;;;;5095873;28;20056;-71
2022/11/06 05:41:21;;;;;;;5.05;2.53;;;;;;;;;;5098141;28;20056;-71
2022/11/06 05:43:47;;;;;;;5.32;2.47;;;;;;;;;;5099600;28;20091;-70
2022/11/06 05:46:14;;;;;;;9.02;2.72;;;;;;;;;;5098732;28;20514;-69
2022/11/06 05:49:00;;;;;;;6.78;2.22;;;;;;;;;;5103178;28;20056;-70
2022/11/06 05:51:26;;;;;;;6.47;2.50;;;;;;;;;;5102320;27;20051;-70
2022/11/06 05:53:53;;;;;;;3.95;1.85;;;;;;;;;;5097484;28;20067;-70
2022/11/06 05:56:20;;;;;;;6.18;1.98;;;;;;;;;;5102616;28;20060;-70
2022/11/06 05:58:46;;;;;;;5.07;2.70;;;;;;;;;;5101751;27;20126;-70
2022/11/06 06:01:12;;;;;;;6.30;2.20;;;;;;;;;;5103231;28;20099;-69
2022/11/06 06:03:38;;;;;;;6.35;2.20;;;;;;;;;;5101451;27;20063;-69
2022/11/06 06:06:05;;;;;;;7.25;2.67;;;;;;;;;;5103169;28;20048;-69
2022/11/06 06:08:31;;;;;;;8.88;2.22;;;;;;;;;;5101985;28;20968;-69
2022/11/06 06:10:58;;;;;;;11.10;2.30;;;;;;;;;;5102109;28;20581;-70
2022/11/06 06:13:24;;;;;;;5.25;2.20;;;;;;;;;;5099294;28;20064;-69
2022/11/06 06:15:50;;;;;;;8.52;3.42;;;;;;;;;;5099463;28;20059;-70
2022/11/06 06:18:16;;;;;;;6.05;2.60;;;;;;;;;;5101873;28;20059;-70
2022/11/06 06:20:43;;;;;;;9.40;2.42;;;;;;;;;;5084910;28;20547;-69
2022/11/06 06:23:09;;;;;;;5.22;2.42;;;;;;;;;;5087397;28;20059;-69
2022/11/06 06:25:36;;;;;;;6.47;2.30;;;;;;;;;;5090262;28;20106;-69
2022/11/06 06:28:02;;;;;;;8.60;2.97;;;;;;;;;;5106304;28;20056;-69
2022/11/06 06:30:28;;;;;;;4.22;2.13;;;;;;;;;;5101684;28;20048;-69
2022/11/06 06:32:54;;;;;;;8.20;2.65;;;;;;;;;;5102555;28;20410;-69
2022/11/06 06:35:21;;;;;;;6.85;2.40;;;;;;;;;;5103541;28;20055;-69
2022/11/06 06:37:51;;;;;;;5.65;2.47;;;;;;;;;;5104239;27;20094;-70
2022/11/06 06:40:17;;;;;;;6.13;2.50;;;;;;;;;;5105844;28;20060;-69
2022/11/06 06:42:44;;;;;;;5.80;2.40;;;;;;;;;;5105082;27;20059;-72
2022/11/06 06:45:11;;;;;;;7.70;2.42;;;;;;;;;;5104212;28;20760;-69
2022/11/06 06:47:37;;;;;;;6.45;2.60;;;;;;;;;;5104915;28;20052;-69
2022/11/06 06:50:04;;;;;;;6.70;2.70;;;;;;;;;;5105125;28;20052;-69
2022/11/06 06:52:30;;;;;;;8.25;2.72;;;;;;;;;;5104901;28;20059;-69
2022/11/06 06:54:57;;;;;;;6.00;2.30;;;;;;;;;;5104036;27;20494;-70
2022/11/06 06:57:23;;;;;;;6.13;2.72;;;;;;;;;;5102160;28;20066;-71
2022/11/06 06:59:49;;;;;;;4.70;2.30;;;;;;;;;;5091271;28;20517;-71
2022/11/06 07:02:16;;;;;;;6.80;2.63;;;;;;;;;;5103564;28;20052;-72
2022/11/06 07:04:42;;;;;;;6.10;2.92;;;;;;;;;;5105624;28;20059;-71
2022/11/06 07:07:08;;;;;;;15.23;3.15;;;;;;;;;;5105399;28;20044;-71
2022/11/06 07:09:35;;;;;;;7.07;2.40;;;;;;;;;;5099904;28;20537;-71
2022/11/06 07:12:01;;;;;;;7.82;2.72;;;;;;;;;;5087136;28;20052;-71
2022/11/06 07:14:27;;;;;;;8.35;2.50;;;;;;;;;;5092179;28;20059;-70
2022/11/06 07:16:53;;;;;;;9.25;3.05;;;;;;;;;;5102552;28;20499;-71
2022/11/06 07:19:20;;;;;;;6.97;2.60;;;;;;;;;;5084050;28;20053;-70
2022/11/06 07:21:49;;;;;;;10.50;3.25;;;;;;;;;;5085636;27;20523;-71
2022/11/06 07:24:17;;;;;;;7.28;2.80;;;;;;;;;;5097250;28;20064;-73
2022/11/06 07:26:43;;;;;;;9.32;2.50;;;;;;;;;;5103783;28;20063;-72
2022/11/06 07:29:09;;;;;;;4.90;2.67;;;;;;;;;;5106815;27;20501;-71
2022/11/06 07:31:36;;;;;;;10.18;3.40;;;;;;;;;;5103412;27;20048;-71
2022/11/06 07:34:02;;;;;;;9.25;2.88;;;;;;;;;;5104750;28;20547;-72
2022/11/06 07:36:29;;;;;;;8.00;2.13;;;;;;;;;;5086379;28;20064;-71
2022/11/06 07:38:56;;;;;;;6.50;2.53;;;;;;;;;;5104707;28;20047;-71
2022/11/06 07:41:23;;;;;;;12.55;2.88;;;;;;;;;;5102834;28;20056;-72
2022/11/06 07:43:49;;;;;;;7.80;2.50;;;;;;;;;;5103777;28;20335;-72
2022/11/06 07:46:15;;;;;;;9.05;3.33;;;;;;;;;;5116083;27;20544;-71
2022/11/06 07:48:41;;;;;;;6.95;2.60;;;;;;;;;;5103911;27;20066;-70
2022/11/06 07:51:09;;;;;;;6.50;2.38;;;;;;;;;;5099112;28;20052;-70
2022/11/06 07:53:36;;;;;;;6.25;2.83;;;;;;;;;;5103927;28;20468;-71
2022/11/06 07:56:03;;;;;;;7.75;2.40;;;;;;;;;;5103330;28;20509;-71
2022/11/06 07:58:29;;;;;;;5.55;2.88;;;;;;;;;;5086999;28;20048;-70
2022/11/06 08:00:56;;;;;;;5.10;2.58;;;;;;;;;;5101919;28;20056;-71
2022/11/06 08:03:23;;;;;;;4.15;2.00;;;;;;;;;;5083712;28;20428;-70
2022/11/06 08:05:50;;;;;;;5.70;2.40;;;;;;;;;;5098292;28;20086;-71
2022/11/06 08:08:16;;;;;;;9.45;3.13;;;;;;;;;;5095822;28;20662;-71
2022/11/06 08:10:43;;;;;;;5.25;2.97;;;;;;;;;;5088145;28;20098;-70
2022/11/06 08:13:10;;;;;;;12.65;2.50;;;;;;;;;;5102806;28;20152;-72
2022/11/06 08:15:37;;;;;;;4.55;3.20;;;;;;;;;;5102435;28;20575;-71
2022/11/06 08:18:04;;;;;;;3.83;2.33;;;;;;;;;;5077770;28;20501;-71
2022/11/06 08:20:30;;;;;;;3.88;2.00;;;;;;;;;;5091773;28;20473;-72
2022/11/06 08:23:01;;;;;;;4.68;2.47;;;;;;;;;;5088693;28;20059;-70
2022/11/06 08:25:27;;;;;;;6.20;2.35;;;;;;;;;;5078435;28;20121;-71
2022/11/06 08:27:55;;;;;;;9.65;2.67;;;;;;;;;;5094695;28;20048;-71
2022/11/06 08:30:21;;;;;;;4.90;2.33;;;;;;;;;;5101714;28;20060;-71
2022/11/06 08:32:47;;;;;;;3.25;2.10;;;;;;;;;;5099509;28;20456;-69
2022/11/06 08:35:13;;;;;;;6.72;2.88;;;;;;;;;;5099455;28;20544;-70
2022/11/06 08:37:40;;;;;;;8.82;2.97;;;;;;;;;;5095635;28;20604;-70
2022/11/06 08:40:07;;;;;;;8.10;2.33;;;;;;;;;;5101624;28;20055;-70
2022/11/06 08:42:33;;;;;;;3.70;1.90;;;;;;;;;;5089858;28;20044;-70
2022/11/06 08:44:59;;;;;;;3.88;1.90;;;;;;;;;;5103658;28;20456;-71
2022/11/06 08:47:26;;;;;;;5.78;2.33;;;;;;;;;;5104187;28;20052;-70
2022/11/06 08:49:52;;;;;;;5.25;2.00;;;;;;;;;;5091204;28;20121;-70
2022/11/06 08:52:18;;;;;;;6.80;2.03;;;;;;;;;;5100827;28;20044;-70
2022/11/06 08:54:45;;;;;;;3.95;2.50;;;;;;;;;;5091266;28;20053;-69
2022/11/06 08:57:12;;;;;;;7.00;2.65;;;;;;;;;;5093744;28;20062;-70
2022/11/06 08:59:38;;;;;;;8.55;1.80;;;;;;;;;;5092200;28;20150;-70
2022/11/06 09:02:04;;;;;;;8.32;2.63;;;;;;;;;;5101055;28;20078;-69
2022/11/06 09:04:31;;;;;;;7.72;2.20;;;;;;;;;;5094005;28;20048;-69
2022/11/06 09:07:01;;;;;;;7.07;2.42;;;;;;;;;;5097437;28;20420;-70
2022/11/06 09:09:30;;;;;;;6.13;1.77;;;;;;;;;;5102458;28;20097;-70
2022/11/06 09:11:57;;;;;;;7.07;2.65;;;;;;;;;;5102825;28;20190;-69
2022/11/06 09:14:24;;;;;;;4.43;1.90;;;;;;;;;;5103086;28;20502;-69
2022/11/06 09:16:50;;;;;;;19.92;2.63;;;;;;;;;;5102749;28;20449;-65
2022/11/06 09:19:17;;;;;;;4.22;1.92;;;;;;;;;;5102668;28;20056;-71
2022/11/06 09:21:43;;;;;;;7.88;1.88;;;;;;;;;;5102824;28;20052;-70
2022/11/06 09:24:13;;;;;;;10.15;2.25;;;;;;;;;;5103865;28;20052;-69
2022/11/06 09:26:39;;;;;;;6.35;1.92;;;;;;;;;;5103808;28;20061;-70
2022/11/06 09:29:06;;;;;;;4.25;1.73;;;;;;;;;;5102946;28;20775;-70
2022/11/06 09:31:32;;;;;;;7.35;2.05;;;;;;;;;;5102365;28;20055;-70
2022/11/06 09:33:58;;;;;;;8.75;2.10;;;;;;;;;;5101747;28;20056;-69
2022/11/06 09:36:25;;;;;;;4.38;1.88;;;;;;;;;;5093288;28;20052;-70
2022/11/06 09:38:51;;;;;;;6.25;1.80;;;;;;;;;;5095442;28;20052;-70
2022/11/06 09:41:21;;;;;;;2.40;1.40;;;;;;;;;;5101507;28;20063;-70
2022/11/06 09:44:06;;;;;;;2.25;1.60;;;;;;;;;;5088924;28;20083;-70
2022/11/06 09:46:44;;;;;;;4.40;2.10;;;;;;;;;;5073189;28;20063;-71
2022/11/06 09:49:11;;;;;;;8.95;2.15;;;;;;;;;;5097415;28;20426;-70
2022/11/06 09:51:49;;;;;;;6.47;1.60;;;;;;;;;;5103856;28;20052;-70
2022/11/06 09:54:39;;;;;;;5.45;1.58;;;;;;;;;;5099767;28;20054;-70
2022/11/06 09:57:17;;;;;;;4.45;1.85;;;;;;;;;;5072745;28;20121;-69
2022/11/06 09:59:44;;;;;;;5.53;1.52;;;;;;;;;;5104961;28;20051;-68
2022/11/06 10:02:22;;;;;;;10.38;2.28;;;;;;;;;;5106625;28;20501;-70
2022/11/06 10:04:53;;;;;;;6.60;1.70;;;;;;;;;;5105962;28;20048;-70
2022/11/06 10:07:22;;;;;;;5.40;1.85;;;;;;;;;;5103094;28;20126;-69
2022/11/06 10:09:48;;;;;;;5.47;1.70;;;;;;;;;;5102708;28;20406;-69
2022/11/06 10:12:17;;;;;;;5.90;1.92;;;;;;;;;;5106283;28;20052;-69
2022/11/06 10:14:56;;;;;;;8.10;1.60;;;;;;;;;;5101961;28;20159;-69
2022/11/06 10:17:35;;;;;;;4.65;1.40;;;;;;;;;;5099217;28;20060;-70
2022/11/06 10:20:07;;;;;;;3.25;1.30;;;;;;;;;;5101187;28;20055;-69
2022/11/06 10:22:38;;;;;;;3.90;1.80;;;;;;;;;;5091654;28;20160;-70
2022/11/06 10:25:07;;;;;;;5.40;1.80;;;;;;;;;;5085114;28;20048;-69
2022/11/06 10:27:47;;;;;;;3.60;1.65;;;;;;;;;;5094258;28;20057;-71
2022/11/06 10:30:15;;;;;;;5.95;1.25;;;;;;;;;;5098509;28;20475;-71
2022/11/06 10:32:42;;;;;;;4.05;1.38;;;;;;;;;;5096072;28;20052;-72
2022/11/06 10:35:27;;;;;;;4.28;1.58;;;;;;;;;;5101192;27;20052;-71
2022/11/06 10:37:56;;;;;;;5.15;1.63;;;;;;;;;;5099480;28;20078;-71
2022/11/06 10:40:27;;;;;;;7.70;1.40;;;;;;;;;;5094401;28;20522;-71
2022/11/06 10:42:56;;;;;;;3.05;1.10;;;;;;;;;;5098121;28;20048;-71
2022/11/06 10:45:25;;;;;;;3.30;1.38;;;;;;;;;;5100321;28;20101;-70
2022/11/06 10:47:58;;;;;;;1.98;1.23;;;;;;;;;;5099092;28;20269;-70
2022/11/06 10:50:27;;;;;;;3.05;1.02;;;;;;;;;;5092347;28;20526;-70
2022/11/06 10:53:02;;;;;;;5.43;1.70;;;;;;;;;;5094879;28;20074;-71
2022/11/06 10:55:29;;;;;;;;;;;;;;;;;;5082851;28;20413;-69
2022/11/06 10:57:55;;;;;;;5.78;1.27;;;;;;;;;;5100877;28;45297;-72
2022/11/06 11:00:22;;;;;;;8.15;1.30;;;;;;;;;;5099192;28;20501;-71
2022/11/06 11:02:51;;;;;;;6.65;1.73;;;;;;;;;;5100211;28;20052;-71
2022/11/06 11:05:22;;;;;;;6.53;1.88;;;;;;;;;;5068867;28;20509;-71
2022/11/06 11:07:49;;;;;;;2.97;1.70;;;;;;;;;;5078310;28;20458;-72
2022/11/06 11:10:26;;;;;;;3.33;2.10;;;;;;;;;;5103751;28;20058;-72
2022/11/06 11:12:54;;;;;;;5.93;1.90;;;;;;;;;;5104631;28;20040;-71
2022/11/06 11:15:21;;;;;;;5.28;2.08;;;;;;;;;;5073028;28;20088;-72
2022/11/06 11:18:06;;;;;;;8.40;2.22;;;;;;;;;;5093261;28;20114;-70
2022/11/06 11:20:33;;;;;;;5.07;1.80;;;;;;;;;;5084415;28;20144;-71
2022/11/06 11:23:23;;;;;;;5.32;1.80;;;;;;;;;;5090309;28;20525;-71
2022/11/06 11:25:51;;;;;;;5.22;2.10;;;;;;;;;;5090346;27;20052;-70
2022/11/06 11:28:31;;;;;;;4.45;1.83;;;;;;;;;;5098975;28;20509;-71
2022/11/06 11:31:14;;;;;;;9.18;1.83;;;;;;;;;;5102311;27;20482;-70
2022/11/06 11:33:46;;;;;;;6.93;1.63;;;;;;;;;;5103197;28;20060;-71
2022/11/06 11:36:12;;;;;;;6.72;1.88;;;;;;;;;;5089685;28;20060;-70
2022/11/06 11:38:39;;;;;;;5.70;1.80;;;;;;;;;;5102163;28;20055;-70
2022/11/06 11:41:18;;;;;;;6.35;2.20;;;;;;;;;;5090518;28;20140;-71
2022/11/06 11:44:03;;;;;;;6.47;1.88;;;;;;;;;;5107296;27;20126;-70
2022/11/06 11:46:30;;;;;;;3.85;1.40;;;;;;;;;;5093992;27;20544;-70
2022/11/06 11:48:57;;;;;;;3.90;1.38;;;;;;;;;;5101534;28;20422;-70
2022/11/06 11:51:24;;;;;;;2.15;1.63;;;;;;;;;;5100853;28;20057;-70
2022/11/06 11:53:51;;;;;;;3.70;1.50;;;;;;;;;;5094346;28;20154;-69
2022/11/06 11:56:18;;;;;;;4.68;1.92;;;;;;;;;;5099330;28;20509;-70
2022/11/06 11:59:04;;;;;;;8.57;1.67;;;;;;;;;;5101735;28;20109;-69
2022/11/06 12:01:40;;;;;;;6.30;2.08;;;;;;;;;;5100333;27;20059;-70
2022/11/06 12:04:06;;;;;;;;;;;;;;;;;;5094746;28;20058;-69
2022/11/06 12:06:32;;;;;;;3.53;1.77;;;;;;;;;;5096093;27;46855;-70
2022/11/06 12:08:59;;;;;;;11.25;2.13;;;;;;;;;;5094231;28;20052;-70
2022/11/06 12:11:27;;;;;;;4.28;1.48;;;;;;;;;;5100900;28;20079;-70
2022/11/06 12:14:12;;;;;;;4.30;1.70;;;;;;;;;;5098978;28;20109;-70
2022/11/06 12:16:39;;;;;;;5.28;1.58;;;;;;;;;;5082581;28;20063;-70
2022/11/06 12:19:06;;;;;;;5.05;1.70;;;;;;;;;;5098582;28;20648;-70
2022/11/06 12:21:34;;;;;;;4.70;1.58;;;;;;;;;;5094868;27;20500;-70
2022/11/06 12:24:11;;;;;;;2.85;1.45;;;;;;;;;;5099718;28;20517;-70
2022/11/06 12:26:41;;;;;;;6.53;1.52;;;;;;;;;;5102225;28;20403;-70
2022/11/06 12:29:14;;;;;;;6.50;1.67;;;;;;;;;;5092117;28;20095;-70
2022/11/06 12:31:46;;;;;;;7.07;2.10;;;;;;;;;;5101219;28;20048;-69
2022/11/06 12:34:17;;;;;;;5.13;1.98;;;;;;;;;;5096598;28;20112;-69
2022/11/06 12:36:47;;;;;;;6.38;2.20;;;;;;;;;;5096974;28;20048;-70
2022/11/06 12:39:22;;;;;;;6.30;1.70;;;;;;;;;;5100443;28;20051;-70
2022/11/06 12:41:49;;;;;;;5.15;2.20;;;;;;;;;;5091404;27;20209;-69
2022/11/06 12:44:15;;;;;;;3.20;1.50;;;;;;;;;;5099169;28;20499;-70
2022/11/06 12:46:48;;;;;;;4.80;1.60;;;;;;;;;;5094474;28;20059;-70
2022/11/06 12:49:17;;;;;;;5.63;1.85;;;;;;;;;;5102963;28;20064;-71
2022/11/06 12:51:46;;;;;;;4.35;1.67;;;;;;;;;;5100691;28;20143;-70
2022/11/06 12:54:24;;;;;;;3.47;1.58;;;;;;;;;;5102826;28;20050;-71
2022/11/06 12:57:05;;;;;;;7.05;1.75;;;;;;;;;;5102294;28;20054;-71
2022/11/06 12:59:50;;;;;;;5.28;1.55;;;;;;;;;;5092977;28;20044;-71
2022/11/06 13:02:37;;;;;;;3.92;1.65;;;;;;;;;;5103279;28;20539;-71
2022/11/06 13:05:14;;;;;;;4.45;1.50;;;;;;;;;;5099041;28;20052;-70
2022/11/06 13:07:47;;;;;;;4.03;1.52;;;;;;;;;;5095876;28;20588;-70
2022/11/06 13:10:21;;;;;;;17.63;1.95;;;;;;;;;;5093153;27;20048;-70
2022/11/06 13:12:55;;;;;;;2.72;1.65;;;;;;;;;;5099660;28;20060;-70
2022/11/06 13:15:37;;;;;;;6.55;1.30;;;;;;;;;;5087001;28;20071;-71
2022/11/06 13:18:16;;;;;;;5.13;1.60;;;;;;;;;;5100296;28;20828;-70
2022/11/06 13:21:09;;;;;;;8.38;1.98;;;;;;;;;;5092923;28;20091;-70
2022/11/06 13:23:42;;;;;;;3.60;1.50;;;;;;;;;;5084054;28;20060;-70
2022/11/06 13:26:17;;;;;;;4.65;1.77;;;;;;;;;;5107858;27;20464;-71
2022/11/06 13:28:48;;;;;;;6.60;1.42;;;;;;;;;;5098627;28;20055;-71
2022/11/06 13:31:17;;;;;;;5.85;1.52;;;;;;;;;;5097483;28;20055;-72
2022/11/06 13:33:46;;;;;;;3.45;1.38;;;;;;;;;;5098851;28;20052;-70
2022/11/06 13:36:13;;;;;;;6.07;1.73;;;;;;;;;;5093974;28;20075;-72
2022/11/06 13:38:43;;;;;;;6.75;1.65;;;;;;;;;;5079334;28;20461;-72
2022/11/06 13:41:20;;;;;;;9.07;1.63;;;;;;;;;;5094789;28;20106;-72
2022/11/06 13:43:49;;;;;;;5.43;1.67;;;;;;;;;;5094010;27;20067;-72
2022/11/06 13:46:28;;;;;;;3.83;1.40;;;;;;;;;;5100405;27;20516;-71
2022/11/06 13:49:21;;;;;;;5.93;1.95;;;;;;;;;;5093490;28;20056;-70
2022/11/06 13:51:58;;;;;;;5.82;1.67;;;;;;;;;;5095946;28;20066;-71
2022/11/06 13:54:40;;;;;;;7.95;1.75;;;;;;;;;;5097430;28;20101;-72
2022/11/06 13:57:22;;;;;;;8.27;1.88;;;;;;;;;;5093409;28;20593;-72
2022/11/06 13:59:49;;;;;;;4.70;1.58;;;;;;;;;;5086410;27;20078;-72
2022/11/06 14:02:30;;;;;;;5.10;1.33;;;;;;;;;;5093647;28;20509;-70
2022/11/06 14:05:29;;;;;;;6.05;1.70;;;;;;;;;;5097890;28;20060;-70
2022/11/06 14:07:57;;;;;;;4.93;1.67;;;;;;;;;;5048418;28;20513;-72
2022/11/06 14:10:47;;;;;;;6.18;1.80;;;;;;;;;;5100385;28;20051;-74
2022/11/06 14:13:14;;;;;;;9.88;1.80;;;;;;;;;;5085064;28;20059;-70
2022/11/06 14:15:41;;;;;;;4.65;1.90;;;;;;;;;;5093743;28;20529;-70
2022/11/06 14:18:12;;;;;;;5.53;1.63;;;;;;;;;;5104747;27;20052;-72
2022/11/06 14:20:41;;;;;;;8.05;1.80;;;;;;;;;;5099587;28;20165;-71
2022/11/06 14:23:26;;;;;;;7.20;1.98;;;;;;;;;;5095460;28;20575;-71
2022/11/06 14:26:00;;;;;;;7.05;2.78;;;;;;;;;;5089998;28;20056;-72
2022/11/06 14:28:31;;;;;;;7.17;2.30;;;;;;;;;;5093815;28;20506;-73
2022/11/06 14:30:58;;;;;;;6.97;1.90;;;;;;;;;;5086024;28;20520;-74
2022/11/06 14:33:42;;;;;;;5.80;1.90;;;;;;;;;;5095699;27;20057;-69
2022/11/06 14:36:13;;;;;;;4.50;1.77;;;;;;;;;;5096449;28;20417;-71
2022/11/06 14:38:41;;;;;;;9.75;2.88;;;;;;;;;;5088592;27;20066;-72
2022/11/06 14:41:26;;;;;;;4.95;1.92;;;;;;;;;;5097300;27;20118;-70
2022/11/06 14:43:53;;;;;;;6.75;2.72;;;;;;;;;;5102968;28;20772;-73
2022/11/06 14:46:22;;;;;;;11.35;2.25;;;;;;;;;;5090919;28;20205;-73
2022/11/06 14:48:53;;;;;;;5.38;1.60;;;;;;;;;;5100298;27;20048;-71
2022/11/06 14:51:28;;;;;;;8.80;1.65;;;;;;;;;;5088308;27;20053;-73
2022/11/06 14:53:55;;;;;;;9.15;2.00;;;;;;;;;;5099477;28;20059;-73
2022/11/06 14:56:27;;;;;;;7.15;2.38;;;;;;;;;;5092254;28;20056;-74
2022/11/06 14:58:59;;;;;;;8.25;1.85;;;;;;;;;;5099662;28;20052;-72
2022/11/06 15:01:28;;;;;;;6.30;1.95;;;;;;;;;;5100533;28;20062;-72
2022/11/06 15:03:56;;;;;;;11.90;2.25;;;;;;;;;;5093633;28;20052;-73
2022/11/06 15:06:28;;;;;;;7.18;2.05;;;;;;;;;;5090306;28;20052;-71
2022/11/06 15:08:56;;;;;;;6.65;2.83;;;;;;;;;;5097949;27;20052;-72
2022/11/06 15:11:28;;;;;;;3.90;1.80;;;;;;;;;;5096628;28;20532;-72
2022/11/06 15:13:58;;;;;;;13.30;2.35;;;;;;;;;;5101796;28;20144;-71